sensor_id;sensor_type;location;lat;lon;timestamp;temperature;humidity
40516;DHT22;26216;53.724;9.898;2022-11-28T00:02:04;8.10;99.90
40516;DHT22;26216;53.724;9.898;2022-11-28T00:04:30;8.10;99.90
40516;DHT22;26216;53.724;9.898;2022-11-28T00:06:56;8.10;99.90
40516;DHT22;26216;53.724;9.898;2022-11-28T00:09:23;8.10;99.90
40516;DHT22;26216;53.724;9.898;2022-11-28T00:11:50;8.10;99.90
40516;DHT22;26216;53.724;9.898;2022-11-28T00:14:17;8.10;99.90
40516;DHT22;26216;53.724;9.898;2022-11-28T00:16:43;8.10;99.90
40516;DHT22;26216;53.724;9.898;2022-11-28T00:19:10;8.10;99.90
40516;DHT22;26216;53.724;9.898;2022-11-28T00:21:36;8.10;99.90
40516;DHT22;26216;53.724;9.898;2022-11-28T00:24:02;8.10;99.90
40516;DHT22;26216;53.724;9.898;2022-11-28T00:26:31;8.10;99.90
40516;DHT22;26216;53.724;9.898;2022-11-28T00:28:58;8.10;99.90
40516;DHT22;26216;53.724;9.898;2022-11-28T00:31:30;8.10;99.90
40516;DHT22;26216;53.724;9.898;2022-11-28T00:33:57;8.10;99.90
40516;DHT22;26216;53.724;9.898;2022-11-28T00:36:23;8.10;99.90
40516;DHT22;26216;53.724;9.898;2022-11-28T00:38:50;8.10;99.90
40516;DHT22;26216;53.724;9.898;2022-11-28T00:41:21;8.10;99.90
40516;DHT22;26216;53.724;9.898;2022-11-28T00:43:48;8.10;99.90
40516;DHT22;26216;53.724;9.898;2022-11-28T00:46:15;8.10;99.90
40516;DHT22;26216;53.724;9.898;2022-11-28T00:48:42;8.10;99.90
40516;DHT22;26216;53.724;9.898;2022-11-28T00:51:11;8.10;99.90
40516;DHT22;26216;53.724;9.898;2022-11-28T00:53:37;8.10;99.90
40516;DHT22;26216;53.724;9.898;2022-11-28T00:56:05;8.10;99.90
40516;DHT22;26216;53.724;9.898;2022-11-28T00:58:33;8.10;99.90
40516;DHT22;26216;53.724;9.898;2022-11-28T01:00:59;8.10;99.90
40516;DHT22;26216;53.724;9.898;2022-11-28T01:03:25;8.10;99.90
40516;DHT22;26216;53.724;9.898;2022-11-28T01:05:51;8.10;99.90
40516;DHT22;26216;53.724;9.898;2022-11-28T01:08:17;8.10;99.90
40516;DHT22;26216;53.724;9.898;2022-11-28T01:10:44;8.20;99.90
40516;DHT22;26216;53.724;9.898;2022-11-28T01:13:10;8.10;99.90
40516;DHT22;26216;53.724;9.898;2022-11-28T01:15:39;8.10;99.90
40516;DHT22;26216;53.724;9.898;2022-11-28T01:18:05;8.10;99.90
40516;DHT22;26216;53.724;9.898;2022-11-28T01:20:31;8.10;99.90
40516;DHT22;26216;53.724;9.898;2022-11-28T01:22:57;8.10;99.90
40516;DHT22;26216;53.724;9.898;2022-11-28T01:25:23;8.10;99.90
40516;DHT22;26216;53.724;9.898;2022-11-28T01:27:49;8.10;99.90
40516;DHT22;26216;53.724;9.898;2022-11-28T01:30:15;8.20;99.90
40516;DHT22;26216;53.724;9.898;2022-11-28T01:32:41;8.10;99.90
40516;DHT22;26216;53.724;9.898;2022-11-28T01:35:07;8.10;99.90
40516;DHT22;26216;53.724;9.898;2022-11-28T01:37:33;8.10;99.90
40516;DHT22;26216;53.724;9.898;2022-11-28T01:39:59;8.10;99.90
40516;DHT22;26216;53.724;9.898;2022-11-28T01:42:25;8.10;99.90
40516;DHT22;26216;53.724;9.898;2022-11-28T01:47:25;8.10;99.90
40516;DHT22;26216;53.724;9.898;2022-11-28T01:49:53;8.10;99.90
40516;DHT22;26216;53.724;9.898;2022-11-28T01:52:20;8.10;99.90
40516;DHT22;26216;53.724;9.898;2022-11-28T01:54:49;8.10;99.90
40516;DHT22;26216;53.724;9.898;2022-11-28T01:57:23;8.10;99.90
40516;DHT22;26216;53.724;9.898;2022-11-28T02:00:04;8.10;99.90
40516;DHT22;26216;53.724;9.898;2022-11-28T02:02:50;8.10;99.90
40516;DHT22;26216;53.724;9.898;2022-11-28T02:05:18;8.00;99.90
40516;DHT22;26216;53.724;9.898;2022-11-28T02:07:45;8.00;99.90
40516;DHT22;26216;53.724;9.898;2022-11-28T02:10:16;8.00;99.90
40516;DHT22;26216;53.724;9.898;2022-11-28T02:15:47;8.00;99.90
40516;DHT22;26216;53.724;9.898;2022-11-28T02:33:05;8.00;99.90
40516;DHT22;26216;53.724;9.898;2022-11-28T02:38:50;7.90;99.90
40516;DHT22;26216;53.724;9.898;2022-11-28T02:46:43;7.90;99.90
40516;DHT22;26216;53.724;9.898;2022-11-28T02:49:20;7.90;99.90
40516;DHT22;26216;53.724;9.898;2022-11-28T02:51:52;7.90;99.90
40516;DHT22;26216;53.724;9.898;2022-11-28T02:54:21;7.90;99.90
40516;DHT22;26216;53.724;9.898;2022-11-28T02:56:49;7.90;99.90
40516;DHT22;26216;53.724;9.898;2022-11-28T03:02:14;7.90;99.90
40516;DHT22;26216;53.724;9.898;2022-11-28T03:10:24;7.90;99.90
40516;DHT22;26216;53.724;9.898;2022-11-28T03:13:13;7.90;99.90
40516;DHT22;26216;53.724;9.898;2022-11-28T03:15:53;8.00;99.90
40516;DHT22;26216;53.724;9.898;2022-11-28T03:18:49;8.00;99.90
40516;DHT22;26216;53.724;9.898;2022-11-28T03:21:31;8.00;99.90
40516;DHT22;26216;53.724;9.898;2022-11-28T03:24:12;8.00;99.90
40516;DHT22;26216;53.724;9.898;2022-11-28T03:26:56;8.00;99.90
40516;DHT22;26216;53.724;9.898;2022-11-28T03:29:38;8.00;99.90
40516;DHT22;26216;53.724;9.898;2022-11-28T03:32:10;8.00;99.90
40516;DHT22;26216;53.724;9.898;2022-11-28T03:34:40;8.00;99.90
40516;DHT22;26216;53.724;9.898;2022-11-28T03:37:39;8.00;99.90
40516;DHT22;26216;53.724;9.898;2022-11-28T03:40:11;8.00;99.90
40516;DHT22;26216;53.724;9.898;2022-11-28T03:42:43;8.00;99.90
40516;DHT22;26216;53.724;9.898;2022-11-28T03:45:21;8.00;99.90
40516;DHT22;26216;53.724;9.898;2022-11-28T03:47:58;8.00;99.90
40516;DHT22;26216;53.724;9.898;2022-11-28T03:50:33;8.00;99.90
40516;DHT22;26216;53.724;9.898;2022-11-28T03:53:06;8.00;99.90
40516;DHT22;26216;53.724;9.898;2022-11-28T03:55:44;8.00;99.90
40516;DHT22;26216;53.724;9.898;2022-11-28T04:04:15;8.00;99.90
40516;DHT22;26216;53.724;9.898;2022-11-28T04:13:00;8.00;99.90
40516;DHT22;26216;53.724;9.898;2022-11-28T04:18:24;8.00;99.90
40516;DHT22;26216;53.724;9.898;2022-11-28T04:23:29;8.00;99.90
40516;DHT22;26216;53.724;9.898;2022-11-28T04:26:06;8.00;99.90
40516;DHT22;26216;53.724;9.898;2022-11-28T04:28:33;8.00;99.90
40516;DHT22;26216;53.724;9.898;2022-11-28T04:31:03;8.00;99.90
40516;DHT22;26216;53.724;9.898;2022-11-28T04:33:34;8.00;99.90
40516;DHT22;26216;53.724;9.898;2022-11-28T04:36:00;8.00;99.90
40516;DHT22;26216;53.724;9.898;2022-11-28T04:38:31;8.00;99.90
40516;DHT22;26216;53.724;9.898;2022-11-28T04:43:43;8.00;99.90
40516;DHT22;26216;53.724;9.898;2022-11-28T04:46:13;8.00;99.90
40516;DHT22;26216;53.724;9.898;2022-11-28T04:48:40;8.00;99.90
40516;DHT22;26216;53.724;9.898;2022-11-28T04:51:26;8.00;99.90
40516;DHT22;26216;53.724;9.898;2022-11-28T04:54:03;8.00;99.90
40516;DHT22;26216;53.724;9.898;2022-11-28T04:56:37;8.00;99.90
40516;DHT22;26216;53.724;9.898;2022-11-28T04:59:06;8.00;99.90
40516;DHT22;26216;53.724;9.898;2022-11-28T05:01:33;8.00;99.90
40516;DHT22;26216;53.724;9.898;2022-11-28T05:04:00;8.00;99.90
40516;DHT22;26216;53.724;9.898;2022-11-28T05:06:32;8.00;99.90
40516;DHT22;26216;53.724;9.898;2022-11-28T05:08:58;8.00;99.90
40516;DHT22;26216;53.724;9.898;2022-11-28T05:11:25;8.00;99.90
40516;DHT22;26216;53.724;9.898;2022-11-28T05:13:51;8.00;99.90
40516;DHT22;26216;53.724;9.898;2022-11-28T05:16:18;8.00;99.90
40516;DHT22;26216;53.724;9.898;2022-11-28T05:18:43;8.00;99.90
40516;DHT22;26216;53.724;9.898;2022-11-28T05:21:10;8.00;99.90
40516;DHT22;26216;53.724;9.898;2022-11-28T05:23:41;8.00;99.90
40516;DHT22;26216;53.724;9.898;2022-11-28T05:26:25;7.90;99.90
40516;DHT22;26216;53.724;9.898;2022-11-28T05:28:51;7.90;99.90
40516;DHT22;26216;53.724;9.898;2022-11-28T05:31:19;7.90;99.90
40516;DHT22;26216;53.724;9.898;2022-11-28T05:33:45;8.00;99.90
40516;DHT22;26216;53.724;9.898;2022-11-28T05:36:12;7.90;99.90
40516;DHT22;26216;53.724;9.898;2022-11-28T05:38:38;7.90;99.90
40516;DHT22;26216;53.724;9.898;2022-11-28T05:41:04;8.00;99.90
40516;DHT22;26216;53.724;9.898;2022-11-28T05:43:30;7.90;99.90
40516;DHT22;26216;53.724;9.898;2022-11-28T05:45:56;7.90;99.90
40516;DHT22;26216;53.724;9.898;2022-11-28T05:48:23;7.90;99.90
40516;DHT22;26216;53.724;9.898;2022-11-28T05:50:49;7.90;99.90
40516;DHT22;26216;53.724;9.898;2022-11-28T05:53:18;7.90;99.90
40516;DHT22;26216;53.724;9.898;2022-11-28T05:55:44;7.90;99.90
40516;DHT22;26216;53.724;9.898;2022-11-28T05:58:10;7.90;99.90
40516;DHT22;26216;53.724;9.898;2022-11-28T06:00:36;7.90;99.90
40516;DHT22;26216;53.724;9.898;2022-11-28T06:03:03;7.90;99.90
40516;DHT22;26216;53.724;9.898;2022-11-28T06:05:30;7.90;99.90
40516;DHT22;26216;53.724;9.898;2022-11-28T06:07:56;7.80;99.80
40516;DHT22;26216;53.724;9.898;2022-11-28T06:10:22;7.80;99.80
40516;DHT22;26216;53.724;9.898;2022-11-28T06:12:48;7.80;99.80
40516;DHT22;26216;53.724;9.898;2022-11-28T06:15:14;7.80;99.80
40516;DHT22;26216;53.724;9.898;2022-11-28T06:17:40;7.90;99.90
40516;DHT22;26216;53.724;9.898;2022-11-28T06:20:06;7.80;99.90
40516;DHT22;26216;53.724;9.898;2022-11-28T06:22:33;7.80;99.80
40516;DHT22;26216;53.724;9.898;2022-11-28T06:24:59;7.80;99.80
40516;DHT22;26216;53.724;9.898;2022-11-28T06:27:25;7.80;99.80
40516;DHT22;26216;53.724;9.898;2022-11-28T06:29:51;7.80;99.80
40516;DHT22;26216;53.724;9.898;2022-11-28T06:32:17;7.80;99.90
40516;DHT22;26216;53.724;9.898;2022-11-28T06:34:43;7.80;99.90
40516;DHT22;26216;53.724;9.898;2022-11-28T06:37:08;7.80;99.90
40516;DHT22;26216;53.724;9.898;2022-11-28T06:39:34;7.80;99.80
40516;DHT22;26216;53.724;9.898;2022-11-28T06:42:01;7.80;99.70
40516;DHT22;26216;53.724;9.898;2022-11-28T06:44:27;7.80;99.80
40516;DHT22;26216;53.724;9.898;2022-11-28T06:46:53;7.80;99.80
40516;DHT22;26216;53.724;9.898;2022-11-28T06:49:19;7.80;99.80
40516;DHT22;26216;53.724;9.898;2022-11-28T06:51:45;7.80;99.90
40516;DHT22;26216;53.724;9.898;2022-11-28T06:54:11;7.80;99.80
40516;DHT22;26216;53.724;9.898;2022-11-28T06:56:39;7.80;99.80
40516;DHT22;26216;53.724;9.898;2022-11-28T06:59:05;7.80;99.70
40516;DHT22;26216;53.724;9.898;2022-11-28T07:01:31;7.80;99.80
40516;DHT22;26216;53.724;9.898;2022-11-28T07:03:59;7.80;99.90
40516;DHT22;26216;53.724;9.898;2022-11-28T07:06:25;7.80;99.90
40516;DHT22;26216;53.724;9.898;2022-11-28T07:08:51;7.80;99.80
40516;DHT22;26216;53.724;9.898;2022-11-28T07:11:24;7.80;99.60
40516;DHT22;26216;53.724;9.898;2022-11-28T07:13:52;7.80;99.80
40516;DHT22;26216;53.724;9.898;2022-11-28T07:16:21;7.80;99.90
40516;DHT22;26216;53.724;9.898;2022-11-28T07:18:47;7.80;99.90
40516;DHT22;26216;53.724;9.898;2022-11-28T07:21:14;7.80;99.80
40516;DHT22;26216;53.724;9.898;2022-11-28T07:23:42;7.80;99.80
40516;DHT22;26216;53.724;9.898;2022-11-28T07:26:10;7.80;99.80
40516;DHT22;26216;53.724;9.898;2022-11-28T07:28:37;7.80;99.80
40516;DHT22;26216;53.724;9.898;2022-11-28T07:31:14;7.80;99.80
40516;DHT22;26216;53.724;9.898;2022-11-28T07:33:44;7.80;99.80
40516;DHT22;26216;53.724;9.898;2022-11-28T07:36:19;7.80;99.80
40516;DHT22;26216;53.724;9.898;2022-11-28T07:38:48;7.80;99.80
40516;DHT22;26216;53.724;9.898;2022-11-28T07:41:14;7.80;99.80
40516;DHT22;26216;53.724;9.898;2022-11-28T07:43:42;7.80;99.90
40516;DHT22;26216;53.724;9.898;2022-11-28T07:46:13;7.80;99.90
40516;DHT22;26216;53.724;9.898;2022-11-28T07:48:39;7.80;99.80
40516;DHT22;26216;53.724;9.898;2022-11-28T07:51:11;7.80;99.80
40516;DHT22;26216;53.724;9.898;2022-11-28T07:53:37;7.80;99.90
40516;DHT22;26216;53.724;9.898;2022-11-28T07:56:09;7.80;99.90
40516;DHT22;26216;53.724;9.898;2022-11-28T07:58:38;7.90;99.90
40516;DHT22;26216;53.724;9.898;2022-11-28T08:01:24;7.90;99.90
40516;DHT22;26216;53.724;9.898;2022-11-28T08:03:51;7.90;99.90
40516;DHT22;26216;53.724;9.898;2022-11-28T08:06:20;7.90;99.90
40516;DHT22;26216;53.724;9.898;2022-11-28T08:08:46;7.90;99.90
40516;DHT22;26216;53.724;9.898;2022-11-28T08:11:14;7.90;99.90
40516;DHT22;26216;53.724;9.898;2022-11-28T08:13:40;8.00;99.90
40516;DHT22;26216;53.724;9.898;2022-11-28T08:16:09;7.90;99.90
40516;DHT22;26216;53.724;9.898;2022-11-28T08:18:37;8.00;99.80
40516;DHT22;26216;53.724;9.898;2022-11-28T08:21:08;8.00;99.90
40516;DHT22;26216;53.724;9.898;2022-11-28T08:23:36;8.00;99.90
40516;DHT22;26216;53.724;9.898;2022-11-28T08:26:04;8.00;99.80
40516;DHT22;26216;53.724;9.898;2022-11-28T08:28:30;8.00;99.70
40516;DHT22;26216;53.724;9.898;2022-11-28T08:30:56;8.00;99.70
40516;DHT22;26216;53.724;9.898;2022-11-28T08:33:24;8.00;99.70
40516;DHT22;26216;53.724;9.898;2022-11-28T08:35:50;8.00;99.70
40516;DHT22;26216;53.724;9.898;2022-11-28T08:38:16;8.10;99.80
40516;DHT22;26216;53.724;9.898;2022-11-28T08:40:42;8.10;99.70
40516;DHT22;26216;53.724;9.898;2022-11-28T08:43:08;8.10;99.70
40516;DHT22;26216;53.724;9.898;2022-11-28T08:45:37;8.10;99.70
40516;DHT22;26216;53.724;9.898;2022-11-28T08:48:04;8.10;99.70
40516;DHT22;26216;53.724;9.898;2022-11-28T08:50:30;8.10;99.60
40516;DHT22;26216;53.724;9.898;2022-11-28T08:52:56;8.10;99.30
40516;DHT22;26216;53.724;9.898;2022-11-28T08:55:22;8.10;99.50
40516;DHT22;26216;53.724;9.898;2022-11-28T08:57:47;8.10;99.50
40516;DHT22;26216;53.724;9.898;2022-11-28T09:00:14;8.20;99.70
40516;DHT22;26216;53.724;9.898;2022-11-28T09:02:40;8.20;99.60
40516;DHT22;26216;53.724;9.898;2022-11-28T09:05:06;8.20;99.60
40516;DHT22;26216;53.724;9.898;2022-11-28T09:07:32;8.20;99.60
40516;DHT22;26216;53.724;9.898;2022-11-28T09:09:59;8.20;99.70
40516;DHT22;26216;53.724;9.898;2022-11-28T09:12:25;8.30;99.70
40516;DHT22;26216;53.724;9.898;2022-11-28T09:14:51;8.30;99.50
40516;DHT22;26216;53.724;9.898;2022-11-28T09:17:17;8.30;99.60
40516;DHT22;26216;53.724;9.898;2022-11-28T09:19:42;8.30;99.70
40516;DHT22;26216;53.724;9.898;2022-11-28T09:22:08;8.30;99.60
40516;DHT22;26216;53.724;9.898;2022-11-28T09:24:34;8.30;99.70
40516;DHT22;26216;53.724;9.898;2022-11-28T09:27:01;8.40;99.70
40516;DHT22;26216;53.724;9.898;2022-11-28T09:29:27;8.40;99.70
40516;DHT22;26216;53.724;9.898;2022-11-28T09:31:53;8.40;99.90
40516;DHT22;26216;53.724;9.898;2022-11-28T09:34:19;8.40;99.60
40516;DHT22;26216;53.724;9.898;2022-11-28T09:36:45;8.40;99.60
40516;DHT22;26216;53.724;9.898;2022-11-28T09:39:12;8.40;99.60
40516;DHT22;26216;53.724;9.898;2022-11-28T09:46:43;8.40;99.60
40516;DHT22;26216;53.724;9.898;2022-11-28T09:50:20;8.40;99.60
40516;DHT22;26216;53.724;9.898;2022-11-28T09:54:47;8.40;99.70
40516;DHT22;26216;53.724;9.898;2022-11-28T09:57:33;8.40;99.70
40516;DHT22;26216;53.724;9.898;2022-11-28T10:00:00;8.40;99.70
40516;DHT22;26216;53.724;9.898;2022-11-28T10:05:16;8.40;99.90
40516;DHT22;26216;53.724;9.898;2022-11-28T10:08:28;8.40;99.90
40516;DHT22;26216;53.724;9.898;2022-11-28T10:13:53;8.40;99.90
40516;DHT22;26216;53.724;9.898;2022-11-28T10:16:54;8.40;99.90
40516;DHT22;26216;53.724;9.898;2022-11-28T10:19:46;8.40;99.90
40516;DHT22;26216;53.724;9.898;2022-11-28T10:22:21;8.40;99.90
40516;DHT22;26216;53.724;9.898;2022-11-28T10:24:57;8.40;99.90
40516;DHT22;26216;53.724;9.898;2022-11-28T10:27:31;8.40;99.90
40516;DHT22;26216;53.724;9.898;2022-11-28T10:30:05;8.40;99.90
40516;DHT22;26216;53.724;9.898;2022-11-28T10:33:21;8.30;99.90
40516;DHT22;26216;53.724;9.898;2022-11-28T10:35:49;8.30;99.90
40516;DHT22;26216;53.724;9.898;2022-11-28T10:38:17;8.40;99.90
40516;DHT22;26216;53.724;9.898;2022-11-28T10:41:05;8.40;99.90
40516;DHT22;26216;53.724;9.898;2022-11-28T10:50:02;8.40;99.90
40516;DHT22;26216;53.724;9.898;2022-11-28T11:00:44;8.30;99.80
40516;DHT22;26216;53.724;9.898;2022-11-28T11:03:16;8.40;99.90
40516;DHT22;26216;53.724;9.898;2022-11-28T11:05:43;8.40;99.90
40516;DHT22;26216;53.724;9.898;2022-11-28T11:08:22;8.40;99.90
40516;DHT22;26216;53.724;9.898;2022-11-28T11:10:51;8.30;99.90
40516;DHT22;26216;53.724;9.898;2022-11-28T11:13:22;8.40;99.90
40516;DHT22;26216;53.724;9.898;2022-11-28T11:16:05;8.40;99.90
40516;DHT22;26216;53.724;9.898;2022-11-28T11:18:35;8.30;99.60
40516;DHT22;26216;53.724;9.898;2022-11-28T11:23:34;8.30;99.50
40516;DHT22;26216;53.724;9.898;2022-11-28T11:26:00;8.30;99.50
40516;DHT22;26216;53.724;9.898;2022-11-28T11:28:35;8.30;99.70
40516;DHT22;26216;53.724;9.898;2022-11-28T11:31:28;8.30;99.70
40516;DHT22;26216;53.724;9.898;2022-11-28T11:34:11;8.30;99.50
40516;DHT22;26216;53.724;9.898;2022-11-28T11:36:40;8.30;99.70
40516;DHT22;26216;53.724;9.898;2022-11-28T11:41:39;8.30;99.70
40516;DHT22;26216;53.724;9.898;2022-11-28T11:49:39;8.30;99.80
40516;DHT22;26216;53.724;9.898;2022-11-28T11:55:08;8.30;99.80
40516;DHT22;26216;53.724;9.898;2022-11-28T11:57:38;8.20;99.80
40516;DHT22;26216;53.724;9.898;2022-11-28T12:02:46;8.20;99.90
40516;DHT22;26216;53.724;9.898;2022-11-28T12:05:21;8.20;99.90
40516;DHT22;26216;53.724;9.898;2022-11-28T12:08:15;8.20;99.90
40516;DHT22;26216;53.724;9.898;2022-11-28T12:10:48;8.20;99.90
40516;DHT22;26216;53.724;9.898;2022-11-28T12:13:21;8.20;99.90
40516;DHT22;26216;53.724;9.898;2022-11-28T12:21:42;8.10;99.90
40516;DHT22;26216;53.724;9.898;2022-11-28T12:24:23;8.20;99.90
40516;DHT22;26216;53.724;9.898;2022-11-28T12:27:17;8.10;99.90
40516;DHT22;26216;53.724;9.898;2022-11-28T12:30:02;8.10;99.90
40516;DHT22;26216;53.724;9.898;2022-11-28T12:32:35;8.10;99.90
40516;DHT22;26216;53.724;9.898;2022-11-28T12:35:35;8.10;99.90
40516;DHT22;26216;53.724;9.898;2022-11-28T12:44:02;8.10;99.90
40516;DHT22;26216;53.724;9.898;2022-11-28T12:46:49;8.10;99.90
40516;DHT22;26216;53.724;9.898;2022-11-28T12:57:44;8.10;99.90
40516;DHT22;26216;53.724;9.898;2022-11-28T13:00:18;8.10;99.90
40516;DHT22;26216;53.724;9.898;2022-11-28T13:11:50;8.10;99.90
40516;DHT22;26216;53.724;9.898;2022-11-28T13:14:40;8.10;99.90
40516;DHT22;26216;53.724;9.898;2022-11-28T13:17:26;8.20;99.90
40516;DHT22;26216;53.724;9.898;2022-11-28T13:20:11;8.10;99.90
40516;DHT22;26216;53.724;9.898;2022-11-28T13:23:01;8.10;99.90
40516;DHT22;26216;53.724;9.898;2022-11-28T13:25:50;8.10;99.90
40516;DHT22;26216;53.724;9.898;2022-11-28T13:31:36;8.10;99.90
40516;DHT22;26216;53.724;9.898;2022-11-28T13:34:04;8.10;99.90
40516;DHT22;26216;53.724;9.898;2022-11-28T13:42:18;8.10;99.90
40516;DHT22;26216;53.724;9.898;2022-11-28T13:44:58;8.10;99.90
40516;DHT22;26216;53.724;9.898;2022-11-28T13:47:30;8.20;99.90
40516;DHT22;26216;53.724;9.898;2022-11-28T13:53:22;8.20;99.90
40516;DHT22;26216;53.724;9.898;2022-11-28T13:55:53;8.10;99.90
40516;DHT22;26216;53.724;9.898;2022-11-28T13:59:00;8.10;99.90
40516;DHT22;26216;53.724;9.898;2022-11-28T14:01:30;8.10;99.90
40516;DHT22;26216;53.724;9.898;2022-11-28T14:04:12;8.10;99.90
40516;DHT22;26216;53.724;9.898;2022-11-28T14:14:28;8.10;99.90
40516;DHT22;26216;53.724;9.898;2022-11-28T14:17:21;8.00;99.90
40516;DHT22;26216;53.724;9.898;2022-11-28T14:20:04;8.00;99.90
40516;DHT22;26216;53.724;9.898;2022-11-28T14:25:22;8.00;99.90
40516;DHT22;26216;53.724;9.898;2022-11-28T14:27:54;8.00;99.90
40516;DHT22;26216;53.724;9.898;2022-11-28T14:30:32;8.00;99.90
40516;DHT22;26216;53.724;9.898;2022-11-28T14:33:18;8.00;99.90
40516;DHT22;26216;53.724;9.898;2022-11-28T14:41:00;7.90;99.90
40516;DHT22;26216;53.724;9.898;2022-11-28T14:43:35;7.90;99.90
40516;DHT22;26216;53.724;9.898;2022-11-28T14:46:27;7.80;99.90
40516;DHT22;26216;53.724;9.898;2022-11-28T14:54:30;7.80;99.90
40516;DHT22;26216;53.724;9.898;2022-11-28T14:57:00;7.80;99.90
40516;DHT22;26216;53.724;9.898;2022-11-28T14:59:32;7.70;99.90
40516;DHT22;26216;53.724;9.898;2022-11-28T15:04:58;7.70;99.90
40516;DHT22;26216;53.724;9.898;2022-11-28T15:16:11;7.60;99.90
40516;DHT22;26216;53.724;9.898;2022-11-28T15:18:41;7.60;99.90
40516;DHT22;26216;53.724;9.898;2022-11-28T15:21:12;7.60;99.90
40516;DHT22;26216;53.724;9.898;2022-11-28T15:23:40;7.60;99.90
40516;DHT22;26216;53.724;9.898;2022-11-28T15:26:14;7.60;99.90
40516;DHT22;26216;53.724;9.898;2022-11-28T15:28:42;7.60;99.90
40516;DHT22;26216;53.724;9.898;2022-11-28T15:31:21;7.60;99.90
40516;DHT22;26216;53.724;9.898;2022-11-28T15:33:48;7.60;99.90
40516;DHT22;26216;53.724;9.898;2022-11-28T15:36:28;7.60;99.90
40516;DHT22;26216;53.724;9.898;2022-11-28T15:38:55;7.60;99.90
40516;DHT22;26216;53.724;9.898;2022-11-28T15:41:26;7.50;99.90
40516;DHT22;26216;53.724;9.898;2022-11-28T15:43:53;7.50;99.90
40516;DHT22;26216;53.724;9.898;2022-11-28T15:46:38;7.50;99.90
40516;DHT22;26216;53.724;9.898;2022-11-28T15:49:04;7.50;99.90
40516;DHT22;26216;53.724;9.898;2022-11-28T15:51:33;7.50;99.90
40516;DHT22;26216;53.724;9.898;2022-11-28T15:54:00;7.50;99.90
40516;DHT22;26216;53.724;9.898;2022-11-28T15:56:29;7.50;99.90
40516;DHT22;26216;53.724;9.898;2022-11-28T15:58:55;7.60;99.90
40516;DHT22;26216;53.724;9.898;2022-11-28T16:01:26;7.50;99.90
40516;DHT22;26216;53.724;9.898;2022-11-28T16:06:27;7.60;99.90
40516;DHT22;26216;53.724;9.898;2022-11-28T16:08:57;7.60;99.90
40516;DHT22;26216;53.724;9.898;2022-11-28T16:11:25;7.50;99.90
40516;DHT22;26216;53.724;9.898;2022-11-28T16:13:54;7.50;99.90
40516;DHT22;26216;53.724;9.898;2022-11-28T16:16:25;7.50;99.90
40516;DHT22;26216;53.724;9.898;2022-11-28T16:19:00;7.50;99.90
40516;DHT22;26216;53.724;9.898;2022-11-28T16:21:36;7.50;99.90
40516;DHT22;26216;53.724;9.898;2022-11-28T16:26:57;7.50;99.90
40516;DHT22;26216;53.724;9.898;2022-11-28T16:29:27;7.50;99.90
40516;DHT22;26216;53.724;9.898;2022-11-28T16:32:04;7.50;99.90
40516;DHT22;26216;53.724;9.898;2022-11-28T16:34:48;7.50;99.90
40516;DHT22;26216;53.724;9.898;2022-11-28T16:37:25;7.50;99.90
40516;DHT22;26216;53.724;9.898;2022-11-28T16:40:19;7.50;99.90
40516;DHT22;26216;53.724;9.898;2022-11-28T16:42:53;7.50;99.90
40516;DHT22;26216;53.724;9.898;2022-11-28T16:45:28;7.50;99.90
40516;DHT22;26216;53.724;9.898;2022-11-28T16:48:15;7.50;99.90
40516;DHT22;26216;53.724;9.898;2022-11-28T16:53:49;7.50;99.90
40516;DHT22;26216;53.724;9.898;2022-11-28T17:01:35;7.50;99.90
40516;DHT22;26216;53.724;9.898;2022-11-28T17:04:02;7.50;99.90
40516;DHT22;26216;53.724;9.898;2022-11-28T17:06:30;7.50;99.90
40516;DHT22;26216;53.724;9.898;2022-11-28T17:09:06;7.50;99.90
40516;DHT22;26216;53.724;9.898;2022-11-28T17:11:34;7.50;99.90
40516;DHT22;26216;53.724;9.898;2022-11-28T17:14:02;7.50;99.90
40516;DHT22;26216;53.724;9.898;2022-11-28T17:16:32;7.50;99.90
40516;DHT22;26216;53.724;9.898;2022-11-28T17:18:58;7.50;99.90
40516;DHT22;26216;53.724;9.898;2022-11-28T17:21:48;7.50;99.90
40516;DHT22;26216;53.724;9.898;2022-11-28T17:24:19;7.50;99.90
40516;DHT22;26216;53.724;9.898;2022-11-28T17:26:45;7.50;99.90
40516;DHT22;26216;53.724;9.898;2022-11-28T17:29:13;7.50;99.90
40516;DHT22;26216;53.724;9.898;2022-11-28T17:31:43;7.50;99.90
40516;DHT22;26216;53.724;9.898;2022-11-28T17:34:20;7.50;99.90
40516;DHT22;26216;53.724;9.898;2022-11-28T17:36:47;7.50;99.90
40516;DHT22;26216;53.724;9.898;2022-11-28T17:39:14;7.50;99.90
40516;DHT22;26216;53.724;9.898;2022-11-28T17:41:40;7.50;99.90
40516;DHT22;26216;53.724;9.898;2022-11-28T17:46:48;7.50;99.90
40516;DHT22;26216;53.724;9.898;2022-11-28T17:49:14;7.50;99.90
40516;DHT22;26216;53.724;9.898;2022-11-28T17:51:40;7.50;99.90
40516;DHT22;26216;53.724;9.898;2022-11-28T17:54:07;7.50;99.90
40516;DHT22;26216;53.724;9.898;2022-11-28T17:56:32;7.50;99.90
40516;DHT22;26216;53.724;9.898;2022-11-28T17:58:59;7.40;99.90
40516;DHT22;26216;53.724;9.898;2022-11-28T18:01:28;7.50;99.90
40516;DHT22;26216;53.724;9.898;2022-11-28T18:03:55;7.50;99.90
40516;DHT22;26216;53.724;9.898;2022-11-28T18:06:22;7.50;99.90
40516;DHT22;26216;53.724;9.898;2022-11-28T18:08:49;7.50;99.90
40516;DHT22;26216;53.724;9.898;2022-11-28T18:11:16;7.50;99.90
40516;DHT22;26216;53.724;9.898;2022-11-28T18:13:44;7.50;99.90
40516;DHT22;26216;53.724;9.898;2022-11-28T18:16:15;7.50;99.90
40516;DHT22;26216;53.724;9.898;2022-11-28T18:18:42;7.50;99.90
40516;DHT22;26216;53.724;9.898;2022-11-28T18:21:08;7.50;99.90
40516;DHT22;26216;53.724;9.898;2022-11-28T18:23:42;7.50;99.90
40516;DHT22;26216;53.724;9.898;2022-11-28T18:26:10;7.50;99.90
40516;DHT22;26216;53.724;9.898;2022-11-28T18:28:37;7.50;99.90
40516;DHT22;26216;53.724;9.898;2022-11-28T18:31:17;7.50;99.90
40516;DHT22;26216;53.724;9.898;2022-11-28T18:33:44;7.50;99.90
40516;DHT22;26216;53.724;9.898;2022-11-28T18:36:20;7.50;99.90
40516;DHT22;26216;53.724;9.898;2022-11-28T18:38:46;7.50;99.90
40516;DHT22;26216;53.724;9.898;2022-11-28T18:41:15;7.50;99.90
40516;DHT22;26216;53.724;9.898;2022-11-28T18:43:42;7.50;99.90
40516;DHT22;26216;53.724;9.898;2022-11-28T18:46:14;7.50;99.90
40516;DHT22;26216;53.724;9.898;2022-11-28T18:48:45;7.50;99.90
40516;DHT22;26216;53.724;9.898;2022-11-28T18:51:24;7.50;99.90
40516;DHT22;26216;53.724;9.898;2022-11-28T18:53:51;7.50;99.90
40516;DHT22;26216;53.724;9.898;2022-11-28T18:56:18;7.40;99.90
40516;DHT22;26216;53.724;9.898;2022-11-28T18:58:46;7.50;99.90
40516;DHT22;26216;53.724;9.898;2022-11-28T19:01:22;7.40;99.90
40516;DHT22;26216;53.724;9.898;2022-11-28T19:03:51;7.40;99.90
40516;DHT22;26216;53.724;9.898;2022-11-28T19:06:18;7.50;99.90
40516;DHT22;26216;53.724;9.898;2022-11-28T19:08:44;7.40;99.90
40516;DHT22;26216;53.724;9.898;2022-11-28T19:11:13;7.40;99.90
40516;DHT22;26216;53.724;9.898;2022-11-28T19:13:41;7.40;99.90
40516;DHT22;26216;53.724;9.898;2022-11-28T19:16:15;7.40;99.90
40516;DHT22;26216;53.724;9.898;2022-11-28T19:18:42;7.40;99.90
40516;DHT22;26216;53.724;9.898;2022-11-28T19:21:11;7.40;99.90
40516;DHT22;26216;53.724;9.898;2022-11-28T19:23:38;7.40;99.90